Bouse, Arizona
Current Conditions -  °F | °C
As of 4:52 PM on Tuesday 21 Oct 2014 (Local Time) from KBLH Reporting Station
Clear Clear  
Wind Chill: 91°   Ceiling: Unl
Heat Index: 91°   Visibility: 10mi
Dew Point: 48°   Wind: 0mph
Humidity: 23%   Direction: NA
Pressure: 29.73"   Gusts: NA
Location:  33.93°N, 114.01°W
Report Text: KBLH 212352Z AUTO 00000KT 10SM CLR 33/09 A2973 RMK AO2 SLP063 T03280089 10333 20283 56014
Loading
Personal Weather Stations






























Interactive Weather Map
Tropical Storm Tracking
New forecast layout! Learn more

10-Day Weather Forecast

Advertisements
Track Severe Weather on mobile